sensor_id;sensor_type;location;lat;lon;timestamp;temperature;humidity
32476;DHT22;18929;48.008;10.882;2024-02-14T00:00:45;4.30;99.90
32476;DHT22;18929;48.008;10.882;2024-02-14T00:03:12;4.80;99.90
32476;DHT22;18929;48.008;10.882;2024-02-14T00:05:38;5.00;99.90
32476;DHT22;18929;48.008;10.882;2024-02-14T00:08:06;5.20;99.90
32476;DHT22;18929;48.008;10.882;2024-02-14T00:10:34;5.00;99.90
32476;DHT22;18929;48.008;10.882;2024-02-14T00:13:02;5.10;99.90
32476;DHT22;18929;48.008;10.882;2024-02-14T00:15:29;4.80;99.90
32476;DHT22;18929;48.008;10.882;2024-02-14T00:17:56;5.00;99.90
32476;DHT22;18929;48.008;10.882;2024-02-14T00:20:23;5.00;99.90
32476;DHT22;18929;48.008;10.882;2024-02-14T00:22:50;5.10;99.90
32476;DHT22;18929;48.008;10.882;2024-02-14T00:25:17;4.40;99.90
32476;DHT22;18929;48.008;10.882;2024-02-14T00:27:44;4.40;99.90
32476;DHT22;18929;48.008;10.882;2024-02-14T00:30:13;4.60;99.90
32476;DHT22;18929;48.008;10.882;2024-02-14T00:32:40;4.40;99.90
32476;DHT22;18929;48.008;10.882;2024-02-14T00:35:25;4.30;99.90
32476;DHT22;18929;48.008;10.882;2024-02-14T00:37:52;4.50;99.90
32476;DHT22;18929;48.008;10.882;2024-02-14T00:40:19;4.50;99.90
32476;DHT22;18929;48.008;10.882;2024-02-14T00:42:46;4.60;99.90
32476;DHT22;18929;48.008;10.882;2024-02-14T00:45:14;4.70;99.90
32476;DHT22;18929;48.008;10.882;2024-02-14T00:47:41;5.00;99.90
32476;DHT22;18929;48.008;10.882;2024-02-14T00:50:08;5.20;99.90
32476;DHT22;18929;48.008;10.882;2024-02-14T00:52:35;5.00;99.90
32476;DHT22;18929;48.008;10.882;2024-02-14T00:55:02;4.90;99.90
32476;DHT22;18929;48.008;10.882;2024-02-14T00:57:29;5.00;99.90
32476;DHT22;18929;48.008;10.882;2024-02-14T00:59:56;5.20;99.90
32476;DHT22;18929;48.008;10.882;2024-02-14T01:02:25;5.20;99.90
32476;DHT22;18929;48.008;10.882;2024-02-14T01:04:52;5.30;99.90
32476;DHT22;18929;48.008;10.882;2024-02-14T01:07:19;5.30;99.90
32476;DHT22;18929;48.008;10.882;2024-02-14T01:09:46;4.90;99.90
32476;DHT22;18929;48.008;10.882;2024-02-14T01:12:13;4.40;99.90
32476;DHT22;18929;48.008;10.882;2024-02-14T01:14:40;4.80;99.90
32476;DHT22;18929;48.008;10.882;2024-02-14T01:17:07;5.10;99.90
32476;DHT22;18929;48.008;10.882;2024-02-14T01:19:36;5.10;99.90
32476;DHT22;18929;48.008;10.882;2024-02-14T01:22:03;5.30;99.90
32476;DHT22;18929;48.008;10.882;2024-02-14T01:24:30;5.20;99.90
32476;DHT22;18929;48.008;10.882;2024-02-14T01:26:57;5.10;99.90
32476;DHT22;18929;48.008;10.882;2024-02-14T01:29:24;5.30;99.90
32476;DHT22;18929;48.008;10.882;2024-02-14T01:31:51;5.00;99.90
32476;DHT22;18929;48.008;10.882;2024-02-14T01:34:18;5.00;99.90
32476;DHT22;18929;48.008;10.882;2024-02-14T01:36:47;4.70;99.90
32476;DHT22;18929;48.008;10.882;2024-02-14T01:39:14;4.50;99.90
32476;DHT22;18929;48.008;10.882;2024-02-14T01:41:44;4.60;99.90
32476;DHT22;18929;48.008;10.882;2024-02-14T01:44:11;4.40;99.90
32476;DHT22;18929;48.008;10.882;2024-02-14T01:46:38;4.30;99.90
32476;DHT22;18929;48.008;10.882;2024-02-14T01:49:05;4.40;99.90
32476;DHT22;18929;48.008;10.882;2024-02-14T01:51:32;4.40;99.90
32476;DHT22;18929;48.008;10.882;2024-02-14T01:54:01;4.20;99.90
32476;DHT22;18929;48.008;10.882;2024-02-14T01:56:29;3.90;99.90
32476;DHT22;18929;48.008;10.882;2024-02-14T01:58:56;4.20;99.90
32476;DHT22;18929;48.008;10.882;2024-02-14T02:01:23;4.40;99.90
32476;DHT22;18929;48.008;10.882;2024-02-14T02:03:50;4.70;99.90
32476;DHT22;18929;48.008;10.882;2024-02-14T02:06:17;4.80;99.90
32476;DHT22;18929;48.008;10.882;2024-02-14T02:08:44;4.40;99.90
32476;DHT22;18929;48.008;10.882;2024-02-14T02:11:12;4.00;99.90
32476;DHT22;18929;48.008;10.882;2024-02-14T02:13:39;4.40;99.90
32476;DHT22;18929;48.008;10.882;2024-02-14T02:16:06;4.10;99.90
32476;DHT22;18929;48.008;10.882;2024-02-14T02:18:35;4.20;99.90
32476;DHT22;18929;48.008;10.882;2024-02-14T02:21:03;4.40;99.90
32476;DHT22;18929;48.008;10.882;2024-02-14T02:23:34;3.60;99.90
32476;DHT22;18929;48.008;10.882;2024-02-14T02:26:00;3.70;99.90
32476;DHT22;18929;48.008;10.882;2024-02-14T02:28:27;3.70;99.90
32476;DHT22;18929;48.008;10.882;2024-02-14T02:30:54;4.00;99.90
32476;DHT22;18929;48.008;10.882;2024-02-14T02:33:21;4.30;99.90
32476;DHT22;18929;48.008;10.882;2024-02-14T02:35:48;4.00;99.90
32476;DHT22;18929;48.008;10.882;2024-02-14T02:38:15;4.10;99.90
32476;DHT22;18929;48.008;10.882;2024-02-14T02:40:44;4.40;99.90
32476;DHT22;18929;48.008;10.882;2024-02-14T02:43:10;4.20;99.90
32476;DHT22;18929;48.008;10.882;2024-02-14T02:45:45;4.20;99.90
32476;DHT22;18929;48.008;10.882;2024-02-14T02:48:13;4.30;99.90
32476;DHT22;18929;48.008;10.882;2024-02-14T02:50:40;4.50;99.90
32476;DHT22;18929;48.008;10.882;2024-02-14T02:53:07;4.60;99.90
32476;DHT22;18929;48.008;10.882;2024-02-14T02:55:33;4.00;99.90
32476;DHT22;18929;48.008;10.882;2024-02-14T02:58:04;4.30;99.90
32476;DHT22;18929;48.008;10.882;2024-02-14T03:00:31;4.50;99.90
32476;DHT22;18929;48.008;10.882;2024-02-14T03:02:58;3.90;99.90
32476;DHT22;18929;48.008;10.882;2024-02-14T03:05:26;4.20;99.90
32476;DHT22;18929;48.008;10.882;2024-02-14T03:07:54;4.20;99.90
32476;DHT22;18929;48.008;10.882;2024-02-14T03:10:23;4.20;99.90
32476;DHT22;18929;48.008;10.882;2024-02-14T03:12:51;3.80;99.90
32476;DHT22;18929;48.008;10.882;2024-02-14T03:15:19;3.30;99.90
32476;DHT22;18929;48.008;10.882;2024-02-14T03:17:47;3.80;99.90
32476;DHT22;18929;48.008;10.882;2024-02-14T03:20:13;4.00;99.90
32476;DHT22;18929;48.008;10.882;2024-02-14T03:22:40;4.20;99.90
32476;DHT22;18929;48.008;10.882;2024-02-14T03:25:11;3.60;99.90
32476;DHT22;18929;48.008;10.882;2024-02-14T03:27:38;4.10;99.90
32476;DHT22;18929;48.008;10.882;2024-02-14T03:30:06;4.30;99.90
32476;DHT22;18929;48.008;10.882;2024-02-14T03:32:34;4.10;99.90
32476;DHT22;18929;48.008;10.882;2024-02-14T03:35:01;3.60;99.90
32476;DHT22;18929;48.008;10.882;2024-02-14T03:37:28;3.90;99.90
32476;DHT22;18929;48.008;10.882;2024-02-14T03:39:55;4.20;99.90
32476;DHT22;18929;48.008;10.882;2024-02-14T03:42:22;4.40;99.90
32476;DHT22;18929;48.008;10.882;2024-02-14T03:44:49;4.30;99.90
32476;DHT22;18929;48.008;10.882;2024-02-14T03:47:16;4.00;99.90
32476;DHT22;18929;48.008;10.882;2024-02-14T03:49:44;4.10;99.90
32476;DHT22;18929;48.008;10.882;2024-02-14T03:52:11;3.80;99.90
32476;DHT22;18929;48.008;10.882;2024-02-14T03:54:37;3.80;99.90
32476;DHT22;18929;48.008;10.882;2024-02-14T03:57:05;4.00;99.90
32476;DHT22;18929;48.008;10.882;2024-02-14T03:59:35;3.90;99.90
32476;DHT22;18929;48.008;10.882;2024-02-14T04:02:02;4.00;99.90
32476;DHT22;18929;48.008;10.882;2024-02-14T04:04:29;4.40;99.90
32476;DHT22;18929;48.008;10.882;2024-02-14T04:07:01;4.10;99.90
32476;DHT22;18929;48.008;10.882;2024-02-14T04:09:28;4.30;99.90
32476;DHT22;18929;48.008;10.882;2024-02-14T04:11:55;4.00;99.90
32476;DHT22;18929;48.008;10.882;2024-02-14T04:14:22;4.30;99.90
32476;DHT22;18929;48.008;10.882;2024-02-14T04:16:48;4.50;99.90
32476;DHT22;18929;48.008;10.882;2024-02-14T04:19:15;4.50;99.90
32476;DHT22;18929;48.008;10.882;2024-02-14T04:21:42;4.60;99.90
32476;DHT22;18929;48.008;10.882;2024-02-14T04:24:11;4.80;99.90
32476;DHT22;18929;48.008;10.882;2024-02-14T04:26:38;4.70;99.90
32476;DHT22;18929;48.008;10.882;2024-02-14T04:29:05;4.30;99.90
32476;DHT22;18929;48.008;10.882;2024-02-14T04:31:31;4.60;99.90
32476;DHT22;18929;48.008;10.882;2024-02-14T04:33:58;4.60;99.90
32476;DHT22;18929;48.008;10.882;2024-02-14T04:36:26;4.80;99.90
32476;DHT22;18929;48.008;10.882;2024-02-14T04:38:56;4.80;99.90
32476;DHT22;18929;48.008;10.882;2024-02-14T04:41:25;4.20;99.90
32476;DHT22;18929;48.008;10.882;2024-02-14T04:43:51;4.40;99.90
32476;DHT22;18929;48.008;10.882;2024-02-14T04:46:18;4.50;99.90
32476;DHT22;18929;48.008;10.882;2024-02-14T04:48:47;4.60;99.90
32476;DHT22;18929;48.008;10.882;2024-02-14T04:51:14;4.80;99.90
32476;DHT22;18929;48.008;10.882;2024-02-14T04:53:41;4.90;99.90
32476;DHT22;18929;48.008;10.882;2024-02-14T04:56:08;4.80;99.90
32476;DHT22;18929;48.008;10.882;2024-02-14T04:58:36;4.80;99.90
32476;DHT22;18929;48.008;10.882;2024-02-14T05:01:03;4.80;99.90
32476;DHT22;18929;48.008;10.882;2024-02-14T05:03:30;4.80;99.90
32476;DHT22;18929;48.008;10.882;2024-02-14T05:05:57;4.70;99.90
32476;DHT22;18929;48.008;10.882;2024-02-14T05:08:24;4.50;99.90
32476;DHT22;18929;48.008;10.882;2024-02-14T05:10:51;4.50;99.90
32476;DHT22;18929;48.008;10.882;2024-02-14T05:13:18;4.60;99.90
32476;DHT22;18929;48.008;10.882;2024-02-14T05:15:46;4.70;99.90
32476;DHT22;18929;48.008;10.882;2024-02-14T05:18:13;4.50;99.90
32476;DHT22;18929;48.008;10.882;2024-02-14T05:20:41;4.60;99.90
32476;DHT22;18929;48.008;10.882;2024-02-14T05:23:08;4.50;99.90
32476;DHT22;18929;48.008;10.882;2024-02-14T05:25:36;4.70;99.90
32476;DHT22;18929;48.008;10.882;2024-02-14T05:28:03;4.80;99.90
32476;DHT22;18929;48.008;10.882;2024-02-14T05:30:30;4.80;99.90
32476;DHT22;18929;48.008;10.882;2024-02-14T05:32:58;5.00;99.90
32476;DHT22;18929;48.008;10.882;2024-02-14T05:35:27;5.10;99.90
32476;DHT22;18929;48.008;10.882;2024-02-14T05:37:54;5.20;99.90
32476;DHT22;18929;48.008;10.882;2024-02-14T05:40:21;5.20;99.90
32476;DHT22;18929;48.008;10.882;2024-02-14T05:42:48;5.40;99.90
32476;DHT22;18929;48.008;10.882;2024-02-14T05:45:15;5.40;99.90
32476;DHT22;18929;48.008;10.882;2024-02-14T05:47:42;5.70;99.90
32476;DHT22;18929;48.008;10.882;2024-02-14T05:50:11;5.60;99.90
32476;DHT22;18929;48.008;10.882;2024-02-14T05:52:38;5.70;99.90
32476;DHT22;18929;48.008;10.882;2024-02-14T05:55:07;5.80;99.90
32476;DHT22;18929;48.008;10.882;2024-02-14T05:57:34;5.90;99.90
32476;DHT22;18929;48.008;10.882;2024-02-14T06:00:01;5.70;99.90
32476;DHT22;18929;48.008;10.882;2024-02-14T06:02:29;5.80;99.90
32476;DHT22;18929;48.008;10.882;2024-02-14T06:04:56;5.80;99.90
32476;DHT22;18929;48.008;10.882;2024-02-14T06:07:25;5.60;99.90
32476;DHT22;18929;48.008;10.882;2024-02-14T06:09:52;5.70;99.90
32476;DHT22;18929;48.008;10.882;2024-02-14T06:12:18;5.70;99.90
32476;DHT22;18929;48.008;10.882;2024-02-14T06:14:47;5.70;99.90
32476;DHT22;18929;48.008;10.882;2024-02-14T06:17:14;5.70;99.90
32476;DHT22;18929;48.008;10.882;2024-02-14T06:19:42;5.70;99.90
32476;DHT22;18929;48.008;10.882;2024-02-14T06:22:08;5.70;99.90
32476;DHT22;18929;48.008;10.882;2024-02-14T06:24:37;5.70;99.90
32476;DHT22;18929;48.008;10.882;2024-02-14T06:27:04;5.60;99.90
32476;DHT22;18929;48.008;10.882;2024-02-14T06:29:31;5.80;99.90
32476;DHT22;18929;48.008;10.882;2024-02-14T06:31:58;5.90;99.90
32476;DHT22;18929;48.008;10.882;2024-02-14T06:34:25;5.70;99.90
32476;DHT22;18929;48.008;10.882;2024-02-14T06:36:53;5.80;99.90
32476;DHT22;18929;48.008;10.882;2024-02-14T06:39:20;5.80;99.90
32476;DHT22;18929;48.008;10.882;2024-02-14T06:41:48;5.90;99.90
32476;DHT22;18929;48.008;10.882;2024-02-14T06:44:15;5.90;99.90
32476;DHT22;18929;48.008;10.882;2024-02-14T06:46:43;6.00;99.90
32476;DHT22;18929;48.008;10.882;2024-02-14T06:49:10;6.00;99.90
32476;DHT22;18929;48.008;10.882;2024-02-14T06:51:37;5.90;99.90
32476;DHT22;18929;48.008;10.882;2024-02-14T06:54:04;5.90;99.90
32476;DHT22;18929;48.008;10.882;2024-02-14T06:56:31;5.90;99.90
32476;DHT22;18929;48.008;10.882;2024-02-14T06:59:00;5.80;99.90
32476;DHT22;18929;48.008;10.882;2024-02-14T07:01:28;5.90;99.90
32476;DHT22;18929;48.008;10.882;2024-02-14T07:03:54;5.90;99.90
32476;DHT22;18929;48.008;10.882;2024-02-14T07:06:21;5.70;99.90
32476;DHT22;18929;48.008;10.882;2024-02-14T07:08:48;5.70;99.90
32476;DHT22;18929;48.008;10.882;2024-02-14T07:11:16;5.90;99.90
32476;DHT22;18929;48.008;10.882;2024-02-14T07:13:43;6.10;99.90
32476;DHT22;18929;48.008;10.882;2024-02-14T07:16:11;6.10;99.90
32476;DHT22;18929;48.008;10.882;2024-02-14T07:18:38;5.50;99.90
32476;DHT22;18929;48.008;10.882;2024-02-14T07:21:05;5.80;99.90
32476;DHT22;18929;48.008;10.882;2024-02-14T07:23:32;5.80;99.90
32476;DHT22;18929;48.008;10.882;2024-02-14T07:25:59;6.20;99.90
32476;DHT22;18929;48.008;10.882;2024-02-14T07:28:27;6.50;99.90
32476;DHT22;18929;48.008;10.882;2024-02-14T07:30:53;5.90;99.90
32476;DHT22;18929;48.008;10.882;2024-02-14T07:33:22;5.70;99.90
32476;DHT22;18929;48.008;10.882;2024-02-14T07:35:49;5.30;99.90
32476;DHT22;18929;48.008;10.882;2024-02-14T07:38:16;5.20;99.90
32476;DHT22;18929;48.008;10.882;2024-02-14T07:40:43;5.60;99.90
32476;DHT22;18929;48.008;10.882;2024-02-14T07:43:10;4.80;99.90
32476;DHT22;18929;48.008;10.882;2024-02-14T07:45:37;4.50;99.90
32476;DHT22;18929;48.008;10.882;2024-02-14T07:48:04;4.40;99.90
32476;DHT22;18929;48.008;10.882;2024-02-14T07:50:32;4.70;99.90
32476;DHT22;18929;48.008;10.882;2024-02-14T07:52:59;4.90;99.90
32476;DHT22;18929;48.008;10.882;2024-02-14T07:55:26;4.90;99.90
32476;DHT22;18929;48.008;10.882;2024-02-14T07:57:53;5.50;99.90
32476;DHT22;18929;48.008;10.882;2024-02-14T08:00:20;5.30;99.90
32476;DHT22;18929;48.008;10.882;2024-02-14T08:02:49;5.70;99.90
32476;DHT22;18929;48.008;10.882;2024-02-14T08:05:16;5.30;99.90
32476;DHT22;18929;48.008;10.882;2024-02-14T08:07:45;5.40;99.90
32476;DHT22;18929;48.008;10.882;2024-02-14T08:10:12;5.00;99.90
32476;DHT22;18929;48.008;10.882;2024-02-14T08:12:39;5.40;99.90
32476;DHT22;18929;48.008;10.882;2024-02-14T08:15:06;5.90;99.90
32476;DHT22;18929;48.008;10.882;2024-02-14T08:17:33;6.00;99.90
32476;DHT22;18929;48.008;10.882;2024-02-14T08:20:00;6.60;99.90
32476;DHT22;18929;48.008;10.882;2024-02-14T08:22:29;6.70;99.90
32476;DHT22;18929;48.008;10.882;2024-02-14T08:24:57;5.70;99.90
32476;DHT22;18929;48.008;10.882;2024-02-14T08:27:24;6.10;99.90
32476;DHT22;18929;48.008;10.882;2024-02-14T08:29:51;6.40;99.90
32476;DHT22;18929;48.008;10.882;2024-02-14T08:32:18;6.50;99.90
32476;DHT22;18929;48.008;10.882;2024-02-14T08:34:45;6.10;99.90
32476;DHT22;18929;48.008;10.882;2024-02-14T08:37:13;6.20;99.90
32476;DHT22;18929;48.008;10.882;2024-02-14T08:39:40;6.30;99.90
32476;DHT22;18929;48.008;10.882;2024-02-14T08:42:08;6.20;99.90
32476;DHT22;18929;48.008;10.882;2024-02-14T08:44:35;6.00;99.90
32476;DHT22;18929;48.008;10.882;2024-02-14T08:47:03;6.30;99.90
32476;DHT22;18929;48.008;10.882;2024-02-14T08:49:30;6.00;99.90
32476;DHT22;18929;48.008;10.882;2024-02-14T08:51:56;5.80;99.90
32476;DHT22;18929;48.008;10.882;2024-02-14T08:54:23;6.50;99.90
32476;DHT22;18929;48.008;10.882;2024-02-14T08:56:50;6.20;99.90
32476;DHT22;18929;48.008;10.882;2024-02-14T08:59:22;6.00;99.90
32476;DHT22;18929;48.008;10.882;2024-02-14T09:01:49;7.10;99.90
32476;DHT22;18929;48.008;10.882;2024-02-14T09:04:16;6.70;99.90
32476;DHT22;18929;48.008;10.882;2024-02-14T09:06:43;6.90;99.90
32476;DHT22;18929;48.008;10.882;2024-02-14T09:09:09;6.70;99.90
32476;DHT22;18929;48.008;10.882;2024-02-14T09:11:37;7.10;99.90
32476;DHT22;18929;48.008;10.882;2024-02-14T09:14:04;6.90;99.90
32476;DHT22;18929;48.008;10.882;2024-02-14T09:16:33;6.70;99.90
32476;DHT22;18929;48.008;10.882;2024-02-14T09:19:00;6.80;99.90
32476;DHT22;18929;48.008;10.882;2024-02-14T09:21:27;6.50;99.90
32476;DHT22;18929;48.008;10.882;2024-02-14T09:23:54;6.80;99.90
32476;DHT22;18929;48.008;10.882;2024-02-14T09:26:21;6.30;99.90
32476;DHT22;18929;48.008;10.882;2024-02-14T09:28:48;6.80;99.90
32476;DHT22;18929;48.008;10.882;2024-02-14T09:31:18;7.00;99.90
32476;DHT22;18929;48.008;10.882;2024-02-14T09:33:46;6.50;99.90
32476;DHT22;18929;48.008;10.882;2024-02-14T09:36:14;7.60;99.90
32476;DHT22;18929;48.008;10.882;2024-02-14T09:38:41;7.40;99.90
32476;DHT22;18929;48.008;10.882;2024-02-14T09:41:11;6.20;99.90
32476;DHT22;18929;48.008;10.882;2024-02-14T09:43:42;6.60;99.90
32476;DHT22;18929;48.008;10.882;2024-02-14T09:46:10;6.70;99.90
32476;DHT22;18929;48.008;10.882;2024-02-14T09:48:38;6.70;99.90
32476;DHT22;18929;48.008;10.882;2024-02-14T09:53:49;6.90;99.90
32476;DHT22;18929;48.008;10.882;2024-02-14T09:56:19;6.80;99.90
32476;DHT22;18929;48.008;10.882;2024-02-14T09:58:48;7.00;99.90
32476;DHT22;18929;48.008;10.882;2024-02-14T10:01:21;7.50;99.90
32476;DHT22;18929;48.008;10.882;2024-02-14T10:03:49;7.70;99.90
32476;DHT22;18929;48.008;10.882;2024-02-14T10:06:17;8.20;99.90
32476;DHT22;18929;48.008;10.882;2024-02-14T10:08:44;8.10;99.90
32476;DHT22;18929;48.008;10.882;2024-02-14T10:11:12;8.20;99.90
32476;DHT22;18929;48.008;10.882;2024-02-14T10:13:47;8.70;99.90
32476;DHT22;18929;48.008;10.882;2024-02-14T10:16:15;8.30;99.90
32476;DHT22;18929;48.008;10.882;2024-02-14T10:18:44;7.80;99.90
32476;DHT22;18929;48.008;10.882;2024-02-14T10:21:14;7.70;99.90
32476;DHT22;18929;48.008;10.882;2024-02-14T10:23:42;7.60;99.90
32476;DHT22;18929;48.008;10.882;2024-02-14T10:26:09;7.80;99.90
32476;DHT22;18929;48.008;10.882;2024-02-14T10:28:40;7.80;99.90
32476;DHT22;18929;48.008;10.882;2024-02-14T10:31:07;8.70;99.90
32476;DHT22;18929;48.008;10.882;2024-02-14T10:33:34;8.60;99.90
32476;DHT22;18929;48.008;10.882;2024-02-14T10:36:02;8.90;99.90
32476;DHT22;18929;48.008;10.882;2024-02-14T10:38:39;8.50;99.90
32476;DHT22;18929;48.008;10.882;2024-02-14T10:41:06;8.40;99.90
32476;DHT22;18929;48.008;10.882;2024-02-14T10:43:34;8.40;99.90
32476;DHT22;18929;48.008;10.882;2024-02-14T10:46:04;8.10;99.90
32476;DHT22;18929;48.008;10.882;2024-02-14T10:48:34;8.40;99.90
32476;DHT22;18929;48.008;10.882;2024-02-14T10:51:02;8.80;99.90
32476;DHT22;18929;48.008;10.882;2024-02-14T10:53:32;9.00;99.90
32476;DHT22;18929;48.008;10.882;2024-02-14T10:56:00;8.30;99.90
32476;DHT22;18929;48.008;10.882;2024-02-14T10:58:27;8.30;99.90
32476;DHT22;18929;48.008;10.882;2024-02-14T11:00:55;8.30;99.90
32476;DHT22;18929;48.008;10.882;2024-02-14T11:03:26;8.00;99.90
32476;DHT22;18929;48.008;10.882;2024-02-14T11:05:55;8.40;99.90
32476;DHT22;18929;48.008;10.882;2024-02-14T11:08:55;8.70;99.90
32476;DHT22;18929;48.008;10.882;2024-02-14T11:11:28;9.00;99.90
32476;DHT22;18929;48.008;10.882;2024-02-14T11:13:57;8.50;99.90
32476;DHT22;18929;48.008;10.882;2024-02-14T11:16:30;8.60;99.90
32476;DHT22;18929;48.008;10.882;2024-02-14T11:19:10;8.90;99.90
32476;DHT22;18929;48.008;10.882;2024-02-14T11:21:37;8.50;99.90
32476;DHT22;18929;48.008;10.882;2024-02-14T11:24:09;9.20;99.90
32476;DHT22;18929;48.008;10.882;2024-02-14T11:26:40;9.50;99.90
32476;DHT22;18929;48.008;10.882;2024-02-14T11:29:13;9.20;99.90
32476;DHT22;18929;48.008;10.882;2024-02-14T11:31:46;8.90;99.90
32476;DHT22;18929;48.008;10.882;2024-02-14T11:34:18;9.00;99.90
32476;DHT22;18929;48.008;10.882;2024-02-14T11:36:47;8.90;99.90
32476;DHT22;18929;48.008;10.882;2024-02-14T11:39:15;10.00;99.90
32476;DHT22;18929;48.008;10.882;2024-02-14T11:41:42;9.70;99.90
32476;DHT22;18929;48.008;10.882;2024-02-14T11:44:09;9.30;99.90
32476;DHT22;18929;48.008;10.882;2024-02-14T11:46:37;9.90;99.90
32476;DHT22;18929;48.008;10.882;2024-02-14T11:49:04;10.60;99.90
32476;DHT22;18929;48.008;10.882;2024-02-14T11:51:33;9.60;99.90
32476;DHT22;18929;48.008;10.882;2024-02-14T11:54:01;9.70;99.90
32476;DHT22;18929;48.008;10.882;2024-02-14T11:59:08;9.70;99.90
32476;DHT22;18929;48.008;10.882;2024-02-14T12:01:36;10.00;99.90
32476;DHT22;18929;48.008;10.882;2024-02-14T12:04:04;9.80;99.90
32476;DHT22;18929;48.008;10.882;2024-02-14T12:06:39;11.00;99.90
32476;DHT22;18929;48.008;10.882;2024-02-14T12:11:43;9.50;99.90
32476;DHT22;18929;48.008;10.882;2024-02-14T12:14:14;10.30;99.90
32476;DHT22;18929;48.008;10.882;2024-02-14T12:16:56;10.40;99.90
32476;DHT22;18929;48.008;10.882;2024-02-14T12:19:35;10.20;99.90
32476;DHT22;18929;48.008;10.882;2024-02-14T12:22:09;10.60;99.90
32476;DHT22;18929;48.008;10.882;2024-02-14T12:24:49;10.60;99.90
32476;DHT22;18929;48.008;10.882;2024-02-14T12:27:17;10.90;99.90
32476;DHT22;18929;48.008;10.882;2024-02-14T12:29:57;10.60;99.90
32476;DHT22;18929;48.008;10.882;2024-02-14T12:32:38;11.20;99.90
32476;DHT22;18929;48.008;10.882;2024-02-14T12:35:06;10.30;99.90
32476;DHT22;18929;48.008;10.882;2024-02-14T12:37:35;9.90;99.90
32476;DHT22;18929;48.008;10.882;2024-02-14T12:40:02;10.00;99.90
32476;DHT22;18929;48.008;10.882;2024-02-14T12:42:32;10.00;99.90
32476;DHT22;18929;48.008;10.882;2024-02-14T12:45:00;9.90;99.90
32476;DHT22;18929;48.008;10.882;2024-02-14T12:47:45;10.30;99.90
32476;DHT22;18929;48.008;10.882;2024-02-14T12:50:15;10.90;99.90
32476;DHT22;18929;48.008;10.882;2024-02-14T12:52:43;10.80;99.90
32476;DHT22;18929;48.008;10.882;2024-02-14T12:55:17;11.40;99.90
32476;DHT22;18929;48.008;10.882;2024-02-14T13:00:59;10.20;99.90
32476;DHT22;18929;48.008;10.882;2024-02-14T13:03:26;10.60;99.90
32476;DHT22;18929;48.008;10.882;2024-02-14T13:05:55;10.90;99.90
32476;DHT22;18929;48.008;10.882;2024-02-14T13:08:23;11.30;99.90
32476;DHT22;18929;48.008;10.882;2024-02-14T13:10:50;10.80;99.90
32476;DHT22;18929;48.008;10.882;2024-02-14T13:13:18;11.20;99.90
32476;DHT22;18929;48.008;10.882;2024-02-14T13:15:45;11.70;99.90
32476;DHT22;18929;48.008;10.882;2024-02-14T13:20:55;11.80;99.90
32476;DHT22;18929;48.008;10.882;2024-02-14T13:23:26;11.90;99.90
32476;DHT22;18929;48.008;10.882;2024-02-14T13:25:54;12.20;99.90
32476;DHT22;18929;48.008;10.882;2024-02-14T13:28:25;11.70;99.90
32476;DHT22;18929;48.008;10.882;2024-02-14T13:30:51;11.60;99.90
32476;DHT22;18929;48.008;10.882;2024-02-14T13:33:18;11.00;99.90
32476;DHT22;18929;48.008;10.882;2024-02-14T13:35:45;11.10;99.90
32476;DHT22;18929;48.008;10.882;2024-02-14T13:38:12;11.00;99.90
32476;DHT22;18929;48.008;10.882;2024-02-14T13:40:40;11.50;99.90
32476;DHT22;18929;48.008;10.882;2024-02-14T13:43:07;11.80;99.90
32476;DHT22;18929;48.008;10.882;2024-02-14T13:45:40;12.00;99.90
32476;DHT22;18929;48.008;10.882;2024-02-14T13:48:07;11.60;99.90
32476;DHT22;18929;48.008;10.882;2024-02-14T13:50:35;11.50;99.90
32476;DHT22;18929;48.008;10.882;2024-02-14T13:53:02;11.00;99.90
32476;DHT22;18929;48.008;10.882;2024-02-14T13:55:28;11.30;99.90
32476;DHT22;18929;48.008;10.882;2024-02-14T13:57:57;11.50;99.90
32476;DHT22;18929;48.008;10.882;2024-02-14T14:00:23;10.70;99.90
32476;DHT22;18929;48.008;10.882;2024-02-14T14:02:50;11.40;99.90
32476;DHT22;18929;48.008;10.882;2024-02-14T14:05:17;11.70;99.90
32476;DHT22;18929;48.008;10.882;2024-02-14T14:07:44;11.50;99.90
32476;DHT22;18929;48.008;10.882;2024-02-14T14:10:12;11.20;99.90
32476;DHT22;18929;48.008;10.882;2024-02-14T14:12:39;11.20;99.90
32476;DHT22;18929;48.008;10.882;2024-02-14T14:15:08;11.40;99.90
32476;DHT22;18929;48.008;10.882;2024-02-14T14:17:35;11.50;99.90
32476;DHT22;18929;48.008;10.882;2024-02-14T14:20:02;11.60;99.90
32476;DHT22;18929;48.008;10.882;2024-02-14T14:22:29;11.70;99.90
32476;DHT22;18929;48.008;10.882;2024-02-14T14:24:56;11.30;99.90
32476;DHT22;18929;48.008;10.882;2024-02-14T14:27:22;11.80;99.90
32476;DHT22;18929;48.008;10.882;2024-02-14T14:29:49;11.00;99.90
32476;DHT22;18929;48.008;10.882;2024-02-14T14:32:18;11.20;99.90
32476;DHT22;18929;48.008;10.882;2024-02-14T14:34:46;11.40;99.90
32476;DHT22;18929;48.008;10.882;2024-02-14T14:37:12;11.70;99.90
32476;DHT22;18929;48.008;10.882;2024-02-14T14:39:39;11.20;99.90
32476;DHT22;18929;48.008;10.882;2024-02-14T14:42:07;11.10;99.90
32476;DHT22;18929;48.008;10.882;2024-02-14T14:44:34;11.60;99.90
32476;DHT22;18929;48.008;10.882;2024-02-14T14:47:01;12.20;99.90
32476;DHT22;18929;48.008;10.882;2024-02-14T14:49:29;11.60;99.90
32476;DHT22;18929;48.008;10.882;2024-02-14T14:51:57;12.20;99.90
32476;DHT22;18929;48.008;10.882;2024-02-14T14:54:24;11.80;99.90
32476;DHT22;18929;48.008;10.882;2024-02-14T14:56:53;12.00;99.90
32476;DHT22;18929;48.008;10.882;2024-02-14T14:59:19;11.60;99.90
32476;DHT22;18929;48.008;10.882;2024-02-14T15:01:48;11.60;99.90
32476;DHT22;18929;48.008;10.882;2024-02-14T15:04:15;11.40;99.90
32476;DHT22;18929;48.008;10.882;2024-02-14T15:06:43;11.30;99.90
32476;DHT22;18929;48.008;10.882;2024-02-14T15:09:10;11.30;99.90
32476;DHT22;18929;48.008;10.882;2024-02-14T15:11:37;11.30;99.90
32476;DHT22;18929;48.008;10.882;2024-02-14T15:14:04;11.40;99.90
32476;DHT22;18929;48.008;10.882;2024-02-14T15:16:32;11.30;99.90
32476;DHT22;18929;48.008;10.882;2024-02-14T15:18:59;11.30;99.90
32476;DHT22;18929;48.008;10.882;2024-02-14T15:21:26;11.40;99.90
32476;DHT22;18929;48.008;10.882;2024-02-14T15:23:55;11.30;99.90
32476;DHT22;18929;48.008;10.882;2024-02-14T15:26:22;11.60;99.90
32476;DHT22;18929;48.008;10.882;2024-02-14T15:28:50;11.70;99.90
32476;DHT22;18929;48.008;10.882;2024-02-14T15:31:24;11.90;99.90
32476;DHT22;18929;48.008;10.882;2024-02-14T15:34:08;12.10;99.90
32476;DHT22;18929;48.008;10.882;2024-02-14T15:36:36;12.30;99.90
32476;DHT22;18929;48.008;10.882;2024-02-14T15:39:04;12.40;99.90
32476;DHT22;18929;48.008;10.882;2024-02-14T15:41:32;12.30;99.90
32476;DHT22;18929;48.008;10.882;2024-02-14T15:43:59;12.20;99.90
32476;DHT22;18929;48.008;10.882;2024-02-14T15:46:26;12.30;99.90